This is the latest recevied weather packets stored in our database for station/object SR5NLK-1. If no packets are shown the sender has not sent any weather packets the latest 10 day(s).
| Time | Temp. | Humidity | Pressure | Rain* | Wind** | Luminosity | Snow |
|---|---|---|---|---|---|---|---|
| 1787664904 | 23.33° C | 48% | 1063.2 hPa | 0 mm | - | - | - |
| 1787664604 | 22.78° C | 49% | 1065.8 hPa | 0 mm | - | - | - |
| 1787664304 | 22.78° C | 49% | 1046 hPa | 0 mm | - | - | - |
| 1787664120 | 23.33° C | 49% | 1087.8 hPa | 0 mm | - | - | - |
| 1787664004 | 23.33° C | 49% | 1087.8 hPa | 0 mm | - | - | - |
| 1787663704 | 23.33° C | 49% | 1081.5 hPa | 0 mm | - | - | - |
| 1787663403 | 23.33° C | 49% | 1083.1 hPa | 0 mm | - | - | - |
| 1787663386 | 23.33° C | 49% | 1032 hPa | 0 mm | - | - | - |
| 1787663104 | 23.33° C | 49% | 1004.2 hPa | 0 mm | - | - | - |
| 1787662988 | 23.89° C | 49% | 1072.1 hPa | 0 mm | - | - | - |
| 1787662804 | 23.33° C | 49% | 1032 hPa | 0 mm | - | - | - |
| 1787662803 | 23.89° C | 48% | 1042.8 hPa | 0 mm | - | - | - |
| 1787662638 | 23.89° C | 48% | 1039.7 hPa | 0 mm | - | - | - |
| 1787662455 | 23.89° C | 48% | 1081.5 hPa | 0 mm | - | - | - |
| 1787662281 | 23.89° C | 48% | 1042.8 hPa | 0 mm | - | - | - |
| 1787662204 | 23.89° C | 49% | 1072.1 hPa | 0 mm | - | - | - |
| 1787661904 | 23.89° C | 48% | 1042.8 hPa | 0 mm | - | - | - |
| 1787661604 | 23.89° C | 48% | 1039.7 hPa | 0 mm | - | - | - |
| 1787661443 | 23.33° C | 49% | 1020.8 hPa | 0 mm | - | - | - |
| 1787661423 | 23.89° C | 48% | 1087.2 hPa | 0 mm | - | - | - |
| 1787661304 | 23.89° C | 48% | 1081.5 hPa | 0 mm | - | - | - |
| 1787661246 | 23.33° C | 49% | 1079.9 hPa | 0 mm | - | - | - |
| 1787661004 | 23.89° C | 48% | 1042.8 hPa | 0 mm | - | - | - |
| 1787660787 | 22.78° C | 50% | 1001 hPa | 0 mm | - | - | - |
| 1787660704 | 23.33° C | 48% | 1084.7 hPa | 0 mm | - | - | - |
* Rain latest hour (hover to see other rain measurements)
** Current wind speed in m/s (hover to see current wind gust speed)